Time;durP1;ratioP1;P1;durP2;ratioP2;P2;SDS_P1;SDS_P2;PMS_P1;PMS_P2;Temp;Humidity;BMP_temperature;BMP_pressure;BME280_temperature;BME280_humidity;BME280_pressure;Samples;Min_cycle;Max_cycle;Signal;HPM_P1;HPM_P2
2022/11/18 00:01:22;;;;;;;3.90;1.03;;;9.10;99.90;;;;;;5032206;28;20205;-57
2022/11/18 00:03:49;;;;;;;7.23;1.37;;;9.70;99.90;;;;;;5026932;28;20189;-57
2022/11/18 00:06:18;;;;;;;5.30;0.90;;;9.50;99.90;;;;;;5023264;28;20184;-57
2022/11/18 00:08:44;;;;;;;8.07;1.30;;;9.50;99.90;;;;;;5023940;28;20181;-57
2022/11/18 00:14:18;;;;;;;3.73;1.20;;;9.60;99.90;;;;;;5032490;28;20718;-57
2022/11/18 00:16:53;;;;;;;7.50;1.07;;;9.80;99.90;;;;;;5031548;28;20236;-57
2022/11/18 00:19:20;;;;;;;8.93;1.40;;;9.60;99.90;;;;;;5023053;28;20301;-57
2022/11/18 00:21:46;;;;;;;6.97;1.13;;;9.60;99.90;;;;;;5019571;28;20231;-57
2022/11/18 00:24:12;;;;;;;8.90;1.53;;;9.50;99.90;;;;;;5021138;28;20190;-57
2022/11/18 00:26:37;;;;;;;4.30;1.37;;;9.50;99.90;;;;;;5016928;28;20651;-57
2022/11/18 00:29:03;;;;;;;10.23;1.50;;;9.70;99.90;;;;;;5023201;28;20512;-57
2022/11/18 00:31:29;;;;;;;5.90;1.30;;;;;;;;;;5027265;28;20182;-57
2022/11/18 00:33:55;;;;;;;8.37;1.43;;;9.50;99.90;;;;;;5031578;28;20170;-57
2022/11/18 00:36:21;;;;;;;8.97;1.47;;;9.60;99.90;;;;;;5031079;28;20221;-57
2022/11/18 00:38:46;;;;;;;7.07;1.30;;;9.50;99.90;;;;;;5023354;28;20182;-57
2022/11/18 00:41:14;;;;;;;7.70;1.30;;;9.40;99.90;;;;;;5026896;28;20645;-57
2022/11/18 00:43:40;;;;;;;7.60;1.60;;;;;;;;;;5019600;28;20184;-57
2022/11/18 00:46:09;;;;;;;6.37;1.23;;;9.50;99.90;;;;;;5023295;28;20739;-57
2022/11/18 00:48:35;;;;;;;5.27;1.40;;;7.90;99.90;;;;;;5028928;28;20189;-57
2022/11/18 00:51:17;;;;;;;10.20;1.47;;;9.60;99.90;;;;;;5024878;28;20183;-57
2022/11/18 00:53:43;;;;;;;6.10;1.60;;;9.40;99.90;;;;;;5020606;28;20189;-57
2022/11/18 00:56:09;;;;;;;6.90;1.23;;;9.40;99.90;;;;;;5027341;28;20221;-57
2022/11/18 00:58:36;;;;;;;13.30;1.70;;;9.40;99.90;;;;;;5005116;28;20850;-57
2022/11/18 01:01:01;;;;;;;7.73;1.20;;;9.30;99.90;;;;;;5011801;28;20174;-57
2022/11/18 01:03:28;;;;;;;4.30;1.17;;;9.30;99.90;;;;;;5011703;28;20167;-58
2022/11/18 01:05:53;;;;;;;11.60;1.90;;;9.30;99.90;;;;;;5011598;28;20668;-57
2022/11/18 01:08:20;;;;;;;8.97;1.50;;;9.30;99.90;;;;;;5030389;28;20174;-57
2022/11/18 01:10:47;;;;;;;6.43;1.37;;;9.20;99.90;;;;;;5023241;28;20184;-57
2022/11/18 01:13:19;;;;;;;6.33;1.70;;;9.20;99.90;;;;;;5031186;28;20644;-57
2022/11/18 01:15:47;;;;;;;6.90;1.80;;;9.20;99.90;;;;;;5027565;28;20225;-57
2022/11/18 01:18:13;;;;;;;6.33;1.40;;;9.20;99.90;;;;;;5030159;28;20209;-58
2022/11/18 01:20:39;;;;;;;12.60;1.60;;;9.20;99.90;;;;;;5030965;28;20893;-58
2022/11/18 01:23:05;;;;;;;5.20;1.40;;;;;;;;;;5024004;28;20183;-58
2022/11/18 01:25:31;;;;;;;8.10;1.73;;;9.00;99.90;;;;;;5012237;28;20243;-58
2022/11/18 01:27:56;;;;;;;5.43;1.20;;;9.30;99.90;;;;;;5011352;28;20228;-58
2022/11/18 01:30:22;;;;;;;11.87;2.97;;;9.30;99.90;;;;;;5015166;28;20253;-58
2022/11/18 01:32:48;;;;;;;5.07;1.47;;;9.30;99.90;;;;;;5022211;28;20188;-58
2022/11/18 01:35:14;;;;;;;6.60;1.30;;;9.10;99.90;;;;;;5030554;28;20198;-57
2022/11/18 01:37:39;;;;;;;8.40;1.67;;;9.30;99.90;;;;;;5030644;28;20632;-57
2022/11/18 01:40:08;;;;;;;5.57;1.43;;;9.60;99.90;;;;;;5030542;28;20672;-57
2022/11/18 01:42:34;;;;;;;4.77;1.27;;;9.90;99.90;;;;;;5028915;28;20186;-57
2022/11/18 01:45:23;;;;;;;8.70;1.70;;;9.10;99.90;;;;;;5029679;28;20186;-58
2022/11/18 01:48:09;;;;;;;6.03;1.33;;;9.20;99.90;;;;;;5013138;28;20241;-58
2022/11/18 01:50:38;;;;;;;9.60;1.57;;;9.30;99.90;;;;;;5012090;28;20245;-58
2022/11/18 01:53:10;;;;;;;6.70;1.40;;;9.00;99.90;;;;;;5021927;28;20225;-56
2022/11/18 01:55:41;;;;;;;7.47;1.80;;;9.30;99.90;;;;;;5022231;28;20259;-56
2022/11/18 01:58:11;;;;;;;12.47;1.17;;;9.50;99.90;;;;;;5014052;28;20220;-56
2022/11/18 02:00:38;;;;;;;5.57;1.50;;;9.20;99.90;;;;;;5011465;28;20182;-57
2022/11/18 02:03:04;;;;;;;5.03;1.40;;;;;;;;;;5024322;28;20671;-57
2022/11/18 02:05:32;;;;;;;4.00;0.93;;;9.20;99.90;;;;;;5011129;28;20254;-56
2022/11/18 02:08:00;;;;;;;10.73;1.40;;;9.20;99.90;;;;;;5026819;28;20256;-56
2022/11/18 02:10:25;;;;;;;4.93;1.17;;;9.20;99.90;;;;;;5014735;28;20186;-56
2022/11/18 02:12:53;;;;;;;7.63;1.30;;;9.20;99.90;;;;;;5012689;28;20179;-56
2022/11/18 02:15:31;;;;;;;10.37;1.57;;;9.20;99.90;;;;;;5027867;28;20213;-56
2022/11/18 02:18:29;;;;;;;10.10;1.30;;;9.10;99.90;;;;;;5030105;28;20235;-56
2022/11/18 02:21:00;;;;;;;6.07;1.60;;;9.20;99.90;;;;;;4975537;28;20406;-56
2022/11/18 02:23:38;;;;;;;7.53;1.57;;;9.10;99.90;;;;;;5030612;28;20174;-56
2022/11/18 02:26:25;;;;;;;9.67;1.60;;;9.20;99.90;;;;;;5010812;28;20616;-56
2022/11/18 02:29:03;;;;;;;6.07;1.57;;;8.90;99.90;;;;;;5010986;28;20191;-56
2022/11/18 02:31:38;;;;;;;4.33;1.30;;;9.20;99.90;;;;;;5015693;28;20969;-56
2022/11/18 02:34:23;;;;;;;9.40;1.30;;;9.30;99.90;;;;;;5017759;28;20185;-57
2022/11/18 02:36:56;;;;;;;6.63;1.40;;;9.10;99.90;;;;;;5024602;28;20213;-57
2022/11/18 02:39:36;;;;;;;6.33;1.50;;;9.20;99.90;;;;;;5033752;28;20186;-57
2022/11/18 02:42:08;;;;;;;6.17;1.20;;;9.10;99.90;;;;;;5033256;28;20663;-57
2022/11/18 02:44:38;;;;;;;5.43;1.40;;;9.30;99.90;;;;;;5032511;28;20185;-57
2022/11/18 02:47:08;;;;;;;7.70;1.50;;;9.20;99.90;;;;;;5014299;28;20872;-57
2022/11/18 02:49:42;;;;;;;6.13;1.23;;;9.20;99.90;;;;;;5020131;28;20178;-57
2022/11/18 02:52:10;;;;;;;9.90;1.80;;;9.20;99.90;;;;;;5030600;28;20224;-56
2022/11/18 02:54:39;;;;;;;6.73;1.30;;;8.00;99.90;;;;;;5031823;28;20668;-56
2022/11/18 02:57:06;;;;;;;6.10;1.10;;;9.30;99.90;;;;;;5024992;28;20293;-56
2022/11/18 02:59:32;;;;;;;6.60;1.30;;;9.30;99.90;;;;;;5013800;28;20179;-55
2022/11/18 03:01:58;;;;;;;8.93;1.00;;;9.30;99.90;;;;;;5013966;28;20736;-55
2022/11/18 03:04:26;;;;;;;6.87;1.30;;;9.40;99.90;;;;;;5015615;28;20637;-56
2022/11/18 03:07:18;;;;;;;8.30;1.17;;;9.20;99.90;;;;;;5022209;28;20185;-55
2022/11/18 03:09:49;;;;;;;6.60;1.17;;;9.60;99.90;;;;;;5033356;28;20188;-56
2022/11/18 03:12:33;;;;;;;4.77;0.93;;;9.30;99.90;;;;;;5033206;28;20201;-56
2022/11/18 03:15:29;;;;;;;2.20;0.67;;;9.10;99.90;;;;;;5032851;28;20242;-56
2022/11/18 03:18:19;;;;;;;6.27;1.00;;;9.30;99.90;;;;;;5026213;28;20218;-56
2022/11/18 03:20:52;;;;;;;11.43;1.33;;;10.70;99.90;;;;;;5016937;28;20179;-56
2022/11/18 03:23:30;;;;;;;7.87;1.30;;;9.10;99.90;;;;;;5027289;28;20306;-56
2022/11/18 03:26:15;;;;;;;9.60;1.33;;;9.20;99.90;;;;;;5027219;28;20182;-56
2022/11/18 03:29:03;;;;;;;6.57;1.40;;;9.30;99.90;;;;;;5013377;28;20184;-56
2022/11/18 03:31:36;;;;;;;5.87;1.27;;;9.20;99.90;;;;;;5013215;28;20222;-55
2022/11/18 03:34:19;;;;;;;9.87;1.40;;;9.10;99.90;;;;;;5029140;28;20182;-57
2022/11/18 03:36:49;;;;;;;2.93;1.00;;;11.10;99.90;;;;;;5013282;28;20218;-56
2022/11/18 03:39:18;;;;;;;7.33;1.60;;;9.30;99.90;;;;;;5025333;28;20272;-56
2022/11/18 03:41:49;;;;;;;5.47;1.43;;;9.30;99.90;;;;;;5019633;28;20187;-56
2022/11/18 03:44:24;;;;;;;10.37;1.63;;;9.40;99.90;;;;;;5028990;28;20185;-56
2022/11/18 03:46:58;;;;;;;8.10;1.70;;;9.10;99.90;;;;;;5031983;28;20208;-56
2022/11/18 03:49:46;;;;;;;8.50;1.57;;;9.00;99.90;;;;;;5024315;28;20243;-56
2022/11/18 03:52:29;;;;;;;5.80;1.47;;;9.40;99.90;;;;;;5030098;28;20173;-56
2022/11/18 03:55:00;;;;;;;9.77;1.23;;;9.30;99.90;;;;;;5030925;28;20202;-56
2022/11/18 03:57:58;;;;;;;3.73;1.00;;;9.20;99.90;;;;;;5020642;28;20192;-56
2022/11/18 04:00:28;;;;;;;7.03;1.53;;;9.40;99.90;;;;;;5015733;28;20194;-56
2022/11/18 04:02:53;;;;;;;8.60;1.50;;;9.50;99.90;;;;;;5015442;28;20201;-56
2022/11/18 04:05:19;;;;;;;7.30;1.60;;;9.20;99.90;;;;;;5031352;28;20181;-56
2022/11/18 04:08:20;;;;;;;6.67;1.57;;;9.00;99.90;;;;;;5022135;28;20175;-56
2022/11/18 04:10:56;;;;;;;11.90;1.13;;;9.20;99.90;;;;;;5023417;28;20182;-56
2022/11/18 04:13:25;;;;;;;9.90;1.50;;;9.20;99.90;;;;;;5017229;28;20170;-56
2022/11/18 04:15:52;;;;;;;6.87;1.53;;;9.10;99.90;;;;;;5027881;28;20226;-56
2022/11/18 04:18:18;;;;;;;3.50;1.07;;;9.20;99.90;;;;;;5012426;28;20174;-56
2022/11/18 04:20:43;;;;;;;7.60;1.40;;;9.30;99.90;;;;;;5012436;28;20714;-56
2022/11/18 04:23:09;;;;;;;7.50;1.40;;;;;;;;;;5012416;28;20550;-56
2022/11/18 04:25:35;;;;;;;7.17;1.07;;;9.20;99.90;;;;;;5023439;28;20182;-56
2022/11/18 04:28:01;;;;;;;10.77;1.40;;;9.10;99.90;;;;;;5031566;28;20691;-56
2022/11/18 04:30:27;;;;;;;6.67;1.37;;;9.10;99.90;;;;;;5031492;28;20177;-56
2022/11/18 04:32:52;;;;;;;9.10;1.30;;;9.40;99.90;;;;;;5031786;28;20166;-56
2022/11/18 04:35:18;;;;;;;10.83;1.87;;;9.20;99.90;;;;;;5031544;28;20213;-56
2022/11/18 04:37:44;;;;;;;7.37;1.80;;;8.90;99.90;;;;;;5031647;28;20217;-56
2022/11/18 04:40:10;;;;;;;7.20;1.73;;;9.20;99.90;;;;;;5031423;28;20525;-56
2022/11/18 04:42:35;;;;;;;10.00;2.03;;;9.10;99.90;;;;;;5031738;28;20178;-56
2022/11/18 04:45:01;;;;;;;11.07;2.43;;;9.40;99.90;;;;;;5026422;28;20258;-56
2022/11/18 04:47:27;;;;;;;8.23;2.10;;;9.40;99.90;;;;;;5027832;28;20671;-56
2022/11/18 04:49:52;;;;;;;6.77;1.73;;;9.80;99.90;;;;;;5030513;28;20636;-56
2022/11/18 04:52:18;;;;;;;13.77;2.50;;;9.40;99.90;;;;;;5009856;28;20265;-56
2022/11/18 04:54:44;;;;;;;9.00;1.70;;;9.20;99.90;;;;;;5026285;28;20666;-56
2022/11/18 04:57:09;;;;;;;9.30;1.87;;;10.20;99.90;;;;;;5024089;28;20763;-56
2022/11/18 04:59:35;;;;;;;13.20;2.33;;;9.00;99.90;;;;;;5022611;28;20175;-56
2022/11/18 05:02:01;;;;;;;14.60;2.17;;;9.00;99.90;;;;;;5031165;28;20718;-56
2022/11/18 05:04:30;;;;;;;13.60;1.80;;;9.30;99.90;;;;;;5022048;28;20652;-56
2022/11/18 05:06:56;;;;;;;4.77;1.60;;;9.20;99.90;;;;;;5024606;28;20213;-56
2022/11/18 05:09:21;;;;;;;10.67;2.30;;;9.30;99.90;;;;;;5021827;28;20236;-56
2022/11/18 05:14:32;;;;;;;11.67;1.73;;;8.90;99.90;;;;;;5012563;28;20193;-56
2022/11/18 05:17:00;;;;;;;16.07;1.90;;;9.30;99.90;;;;;;5027598;28;20578;-56
2022/11/18 05:19:26;;;;;;;13.10;1.63;;;9.40;99.90;;;;;;5030940;28;20182;-56
2022/11/18 05:21:52;;;;;;;10.27;1.73;;;9.50;99.90;;;;;;5029439;28;20549;-56
2022/11/18 05:24:18;;;;;;;10.37;1.90;;;9.30;99.90;;;;;;5029820;28;20174;-56
2022/11/18 05:26:44;;;;;;;6.60;1.47;;;9.30;99.90;;;;;;5031013;28;20235;-56
2022/11/18 05:29:10;;;;;;;14.63;1.50;;;9.30;99.90;;;;;;5029553;28;20706;-56
2022/11/18 05:31:35;;;;;;;14.03;2.07;;;9.20;99.90;;;;;;5017929;28;20178;-56
2022/11/18 05:34:01;;;;;;;9.87;1.83;;;9.40;99.90;;;;;;5020084;28;20174;-56
2022/11/18 05:36:27;;;;;;;12.20;1.77;;;9.10;99.90;;;;;;5022306;28;20349;-55
2022/11/18 05:38:52;;;;;;;7.70;1.63;;;9.10;99.90;;;;;;5011216;28;20207;-55
2022/11/18 05:44:03;;;;;;;17.37;1.73;;;9.10;99.90;;;;;;5019642;28;20189;-56
2022/11/18 05:46:30;;;;;;;9.07;1.60;;;9.10;99.90;;;;;;5030169;28;20238;-56
2022/11/18 05:48:56;;;;;;;12.00;1.63;;;9.00;99.90;;;;;;5030592;28;20182;-56
2022/11/18 05:51:22;;;;;;;10.17;1.80;;;9.00;99.90;;;;;;5027090;28;20189;-55
2022/11/18 05:53:49;;;;;;;8.87;1.90;;;8.80;99.90;;;;;;5030086;28;20645;-56
2022/11/18 05:56:15;;;;;;;29.47;2.17;;;;;;;;;;5021844;28;20217;-55
2022/11/18 05:58:41;;;;;;;10.10;1.80;;;8.80;99.90;;;;;;5028318;28;20190;-55
2022/11/18 06:01:07;;;;;;;8.40;1.97;;;9.00;99.90;;;;;;5015740;28;20205;-55
2022/11/18 06:03:38;;;;;;;14.80;2.73;;;8.80;99.90;;;;;;5015728;28;20178;-56
2022/11/18 06:06:06;;;;;;;11.20;1.90;;;9.00;99.90;;;;;;5025189;28;20182;-55
2022/11/18 06:08:45;;;;;;;14.27;2.13;;;8.90;99.90;;;;;;5023197;28;20181;-55
2022/11/18 06:11:13;;;;;;;13.27;2.00;;;8.60;99.90;;;;;;5020145;28;20170;-55
2022/11/18 06:13:54;;;;;;;15.50;2.03;;;8.90;99.90;;;;;;5028936;28;20179;-55
2022/11/18 06:16:25;;;;;;;12.40;1.97;;;8.80;99.90;;;;;;5014612;28;20325;-55
2022/11/18 06:18:51;;;;;;;14.33;1.87;;;8.60;99.90;;;;;;5017456;28;20239;-55
2022/11/18 06:21:17;;;;;;;10.27;1.97;;;;;;;;;;5022756;28;20182;-55
2022/11/18 06:23:43;;;;;;;10.50;1.83;;;;;;;;;;5014500;28;20584;-55
2022/11/18 06:26:10;;;;;;;13.77;1.53;;;8.70;99.90;;;;;;5020982;28;20234;-55
2022/11/18 06:28:37;;;;;;;10.13;1.87;;;8.90;99.90;;;;;;5029082;28;20186;-56
2022/11/18 06:31:03;;;;;;;10.10;1.70;;;8.90;99.90;;;;;;5014304;28;20240;-56
2022/11/18 06:33:29;;;;;;;16.00;1.77;;;8.70;99.90;;;;;;5019037;28;20178;-56
2022/11/18 06:35:54;;;;;;;8.83;1.90;;;8.60;99.90;;;;;;5030065;28;20696;-56
2022/11/18 06:38:23;;;;;;;8.63;1.57;;;8.80;99.90;;;;;;5017319;28;20231;-56
2022/11/18 06:40:49;;;;;;;10.07;1.67;;;8.70;99.90;;;;;;5016431;28;20418;-56
2022/11/18 06:48:45;;;;;;;12.57;1.70;;;8.70;99.90;;;;;;5033518;28;20181;-56
2022/11/18 06:51:10;;;;;;;9.10;1.70;;;9.00;99.90;;;;;;5024357;28;20183;-56
2022/11/18 06:53:36;;;;;;;9.57;1.70;;;8.90;99.90;;;;;;5014683;28;20257;-56
2022/11/18 06:56:07;;;;;;;10.13;1.67;;;8.50;99.90;;;;;;5021437;28;20472;-56
2022/11/18 06:58:33;;;;;;;5.27;1.60;;;8.80;99.90;;;;;;5024103;28;20185;-57
2022/11/18 07:01:11;;;;;;;15.90;1.70;;;8.70;99.90;;;;;;5030126;28;20186;-56
2022/11/18 07:03:37;;;;;;;9.77;1.50;;;8.60;99.90;;;;;;5018378;28;20224;-56
2022/11/18 07:06:03;;;;;;;8.97;1.73;;;8.60;99.90;;;;;;5017659;28;20654;-56
2022/11/18 07:08:28;;;;;;;9.57;1.77;;;8.50;99.90;;;;;;5031269;28;20178;-56
2022/11/18 07:10:54;;;;;;;11.53;1.90;;;;;;;;;;5010023;28;20195;-56
2022/11/18 07:13:20;;;;;;;6.33;1.73;;;8.80;99.90;;;;;;5030439;28;20186;-56
2022/11/18 07:15:46;;;;;;;7.27;1.67;;;8.70;99.90;;;;;;5023317;28;20227;-56
2022/11/18 07:18:11;;;;;;;6.60;1.37;;;8.80;99.90;;;;;;5013287;28;20182;-57
2022/11/18 07:20:37;;;;;;;10.13;1.53;;;;;;;;;;5025092;28;20193;-56
2022/11/18 07:23:03;;;;;;;7.40;1.50;;;8.60;99.90;;;;;;5028856;28;20174;-56
2022/11/18 07:25:28;;;;;;;7.43;1.70;;;9.00;99.90;;;;;;5024666;28;20357;-56
2022/11/18 07:27:55;;;;;;;7.87;1.30;;;;;;;;;;5033081;28;20600;-56
2022/11/18 07:30:20;;;;;;;4.03;1.30;;;9.00;99.90;;;;;;5024909;28;20178;-56
2022/11/18 07:32:46;;;;;;;6.70;1.47;;;8.70;99.90;;;;;;5021505;28;20182;-56
2022/11/18 07:35:12;;;;;;;6.70;1.50;;;8.80;99.90;;;;;;5022865;28;20210;-56
2022/11/18 07:37:37;;;;;;;9.70;1.70;;;9.00;99.90;;;;;;5013171;28;20178;-56
2022/11/18 07:40:03;;;;;;;9.33;1.77;;;8.90;99.90;;;;;;5023597;28;20647;-57
2022/11/18 07:42:41;;;;;;;12.83;1.50;;;8.80;99.90;;;;;;5014184;28;20262;-57
2022/11/18 07:45:10;;;;;;;6.47;1.03;;;8.70;99.90;;;;;;5023234;28;20191;-57
2022/11/18 07:47:36;;;;;;;9.37;1.80;;;9.00;99.90;;;;;;5023501;28;20189;-56
2022/11/18 07:50:03;;;;;;;10.50;2.07;;;9.20;99.90;;;;;;5031036;28;20313;-56
2022/11/18 07:52:28;;;;;;;6.53;1.37;;;9.40;99.90;;;;;;5021696;28;20190;-56
2022/11/18 07:54:54;;;;;;;7.53;1.47;;;9.20;99.90;;;;;;5026756;28;20178;-56
2022/11/18 07:57:19;;;;;;;6.53;1.33;;;9.20;99.90;;;;;;5022046;28;20189;-56
2022/11/18 07:59:45;;;;;;;10.17;1.40;;;9.20;99.90;;;;;;5032414;28;20244;-57
2022/11/18 08:02:11;;;;;;;7.23;1.30;;;9.30;99.90;;;;;;5031815;28;20182;-58
2022/11/18 08:04:38;;;;;;;3.50;1.00;;;;;;;;;;5032615;28;20170;-58
2022/11/18 08:07:03;;;;;;;15.70;1.60;;;9.40;99.90;;;;;;5032112;28;20208;-58
2022/11/18 08:09:29;;;;;;;7.93;1.80;;;9.40;99.90;;;;;;5031988;28;20174;-57
2022/11/18 08:11:54;;;;;;;5.57;1.40;;;9.60;99.90;;;;;;5026778;28;20221;-56
2022/11/18 08:14:22;;;;;;;5.43;1.73;;;9.60;99.90;;;;;;5031879;28;20264;-56
2022/11/18 08:16:48;;;;;;;5.43;1.80;;;9.80;99.90;;;;;;5023593;28;20276;-57
2022/11/18 08:19:14;;;;;;;10.03;2.17;;;10.30;99.90;;;;;;5011808;28;20178;-57
2022/11/18 08:21:39;;;;;;;9.23;2.30;;;9.90;99.90;;;;;;5025421;28;20649;-56
2022/11/18 08:24:05;;;;;;;7.67;2.30;;;10.00;99.90;;;;;;5031624;28;20178;-58
2022/11/18 08:26:31;;;;;;;6.73;2.33;;;9.90;99.90;;;;;;5031665;28;20268;-55
2022/11/18 08:28:56;;;;;;;2.43;1.70;;;10.20;99.90;;;;;;5031348;28;20216;-56
2022/11/18 08:31:28;;;;;;;9.17;1.93;;;10.40;99.90;;;;;;5028643;28;20189;-55
2022/11/18 08:33:55;;;;;;;8.90;2.00;;;10.50;99.90;;;;;;5031114;28;20178;-55
2022/11/18 08:36:22;;;;;;;4.23;1.50;;;10.50;99.90;;;;;;5031388;28;20213;-55
2022/11/18 08:38:48;;;;;;;6.00;1.60;;;;;;;;;;5031494;28;20181;-55
2022/11/18 08:41:17;;;;;;;8.07;1.70;;;10.90;99.90;;;;;;5031248;28;20166;-55
2022/11/18 08:43:43;;;;;;;5.83;1.60;;;11.20;99.90;;;;;;5031259;28;20158;-56
2022/11/18 08:46:08;;;;;;;7.73;1.60;;;11.70;99.90;;;;;;5027490;28;20188;-55
2022/11/18 08:48:34;;;;;;;6.03;1.60;;;11.70;99.90;;;;;;5004223;28;20190;-55
2022/11/18 08:51:00;;;;;;;10.20;1.90;;;11.30;99.90;;;;;;5023844;28;20656;-55
2022/11/18 08:53:26;;;;;;;5.40;1.67;;;11.40;99.90;;;;;;5012822;28;20178;-55
2022/11/18 08:55:59;;;;;;;3.77;1.37;;;11.70;99.90;;;;;;5011407;28;20205;-55
2022/11/18 08:58:25;;;;;;;4.63;1.37;;;12.90;99.90;;;;;;5011401;28;20170;-56
2022/11/18 09:00:51;;;;;;;6.70;1.50;;;14.10;99.90;;;;;;5011404;28;20178;-56
2022/11/18 09:03:17;;;;;;;7.13;1.63;;;13.40;99.90;;;;;;5011480;28;20173;-55
2022/11/18 09:05:43;;;;;;;5.77;1.50;;;12.10;99.90;;;;;;5023128;28;20170;-55
2022/11/18 09:08:08;;;;;;;8.40;1.67;;;12.20;99.90;;;;;;5031031;28;20235;-56
2022/11/18 09:10:36;;;;;;;3.47;1.00;;;11.80;99.90;;;;;;5030625;28;20247;-58
2022/11/18 09:13:02;;;;;;;4.20;1.37;;;11.60;99.90;;;;;;5030678;28;20180;-57
2022/11/18 09:15:28;;;;;;;5.10;1.37;;;11.60;99.90;;;;;;5030444;28;20755;-58
2022/11/18 09:17:55;;;;;;;5.13;1.33;;;11.50;99.90;;;;;;5030324;28;20189;-57
2022/11/18 09:20:21;;;;;;;4.23;1.00;;;11.50;99.90;;;;;;5030713;28;20205;-56
2022/11/18 09:22:47;;;;;;;5.63;1.10;;;11.50;99.90;;;;;;5029045;28;20648;-58
2022/11/18 09:25:12;;;;;;;5.73;1.10;;;12.00;99.90;;;;;;5023797;28;20531;-56
2022/11/18 09:27:38;;;;;;;4.10;0.77;;;12.60;99.90;;;;;;5009859;28;20202;-56
2022/11/18 09:30:04;;;;;;;6.17;1.13;;;12.80;99.90;;;;;;5010563;28;20190;-56
2022/11/18 09:32:31;;;;;;;8.33;1.10;;;12.60;99.90;;;;;;5013948;28;20701;-56
2022/11/18 09:34:57;;;;;;;5.40;0.90;;;12.00;99.90;;;;;;5029278;28;20205;-56
2022/11/18 09:37:23;;;;;;;6.43;0.90;;;12.10;99.90;;;;;;5030518;28;20178;-55
2022/11/18 09:39:49;;;;;;;6.33;0.60;;;12.60;99.90;;;;;;5029561;28;20170;-55
2022/11/18 09:42:29;;;;;;;4.63;0.73;;;12.20;99.90;;;;;;5029353;28;20932;-55
2022/11/18 09:44:55;;;;;;;2.23;0.73;;;;;;;;;;5025166;28;20277;-56
2022/11/18 09:47:27;;;;;;;4.33;0.80;;;12.10;99.90;;;;;;5014648;28;20170;-55
2022/11/18 09:49:56;;;;;;;7.10;0.93;;;12.10;99.90;;;;;;5015441;28;20186;-55
2022/11/18 09:52:56;;;;;;;5.47;0.80;;;12.10;99.90;;;;;;5019588;28;20265;-55
2022/11/18 09:55:22;;;;;;;6.23;0.67;;;12.00;99.90;;;;;;5010108;28;20218;-56
2022/11/18 09:57:54;;;;;;;3.13;1.00;;;11.70;99.90;;;;;;5021934;28;20202;-55
2022/11/18 10:00:29;;;;;;;4.77;0.97;;;12.00;99.90;;;;;;5016853;28;20302;-56
2022/11/18 10:03:05;;;;;;;7.43;0.90;;;12.20;99.90;;;;;;5014737;28;20526;-56
2022/11/18 10:05:54;;;;;;;9.93;1.10;;;12.30;99.90;;;;;;5014795;28;20700;-55
2022/11/18 10:08:26;;;;;;;3.10;0.90;;;12.00;99.90;;;;;;5014366;28;20198;-56
2022/11/18 10:11:13;;;;;;;4.53;1.00;;;12.30;99.90;;;;;;5013819;28;20220;-56
2022/11/18 10:13:44;;;;;;;3.37;0.87;;;12.90;99.90;;;;;;5020105;28;20239;-56
2022/11/18 10:16:22;;;;;;;3.97;1.10;;;13.00;99.90;;;;;;5033409;28;20268;-57
2022/11/18 10:18:51;;;;;;;8.63;1.20;;;12.90;99.90;;;;;;5034038;28;20184;-57
2022/11/18 10:21:50;;;;;;;8.60;1.27;;;12.90;99.90;;;;;;5033946;28;20232;-57
2022/11/18 10:24:21;;;;;;;5.60;1.03;;;13.30;99.90;;;;;;4997737;28;20188;-56
2022/11/18 10:26:53;;;;;;;3.83;0.70;;;13.00;99.90;;;;;;5014257;28;20197;-56
2022/11/18 10:29:18;;;;;;;3.20;0.77;;;12.90;99.90;;;;;;5014087;28;20629;-56
2022/11/18 10:32:05;;;;;;;3.13;0.67;;;13.00;99.90;;;;;;5014115;28;20174;-57
2022/11/18 10:34:44;;;;;;;4.57;0.90;;;12.70;99.90;;;;;;5014139;28;20258;-57
2022/11/18 10:37:25;;;;;;;4.50;1.00;;;12.70;99.90;;;;;;5008180;28;20218;-57
2022/11/18 10:39:54;;;;;;;4.80;0.90;;;12.60;99.90;;;;;;5014159;28;20262;-56
2022/11/18 10:42:40;;;;;;;6.30;1.20;;;12.30;99.90;;;;;;5013501;28;20359;-57
2022/11/18 10:45:30;;;;;;;6.63;1.27;;;12.40;99.90;;;;;;5014192;28;20628;-56
2022/11/18 10:48:14;;;;;;;5.47;1.13;;;12.40;99.90;;;;;;5014108;28;20461;-57
2022/11/18 10:50:41;;;;;;;7.67;1.27;;;12.40;99.90;;;;;;5014203;28;20175;-56
2022/11/18 10:53:33;;;;;;;6.17;1.03;;;12.30;99.90;;;;;;5013620;28;20270;-56
2022/11/18 10:56:03;;;;;;;8.90;1.80;;;12.10;99.90;;;;;;4998210;28;20225;-56
2022/11/18 10:58:30;;;;;;;6.37;1.03;;;12.30;99.90;;;;;;5012305;28;20274;-56
2022/11/18 11:01:07;;;;;;;5.70;1.17;;;12.20;99.90;;;;;;5012277;28;20214;-56
2022/11/18 11:03:37;;;;;;;8.03;1.43;;;12.00;99.90;;;;;;5011868;28;20253;-56
2022/11/18 11:06:29;;;;;;;7.13;1.27;;;12.10;99.90;;;;;;5011882;28;20582;-57
2022/11/18 11:09:12;;;;;;;6.00;1.70;;;12.60;99.90;;;;;;5011874;28;20182;-57
2022/11/18 11:11:55;;;;;;;6.23;1.60;;;12.80;99.90;;;;;;5017944;28;20205;-57
2022/11/18 11:14:35;;;;;;;14.07;2.37;;;12.70;99.90;;;;;;5033427;28;20273;-57
2022/11/18 11:17:19;;;;;;;5.20;1.30;;;12.60;99.90;;;;;;5033248;28;20225;-57
2022/11/18 11:19:48;;;;;;;5.93;1.40;;;12.70;99.90;;;;;;5032588;28;20175;-57
2022/11/18 11:22:14;;;;;;;5.63;1.23;;;;;;;;;;5033316;28;20177;-57
2022/11/18 11:24:40;;;;;;;7.93;1.47;;;;;;;;;;5026491;28;20486;-57
2022/11/18 11:27:23;;;;;;;67.73;24.73;;;12.50;99.90;;;;;;5013310;28;20182;-57
2022/11/18 11:29:58;;;;;;;61.47;22.47;;;12.60;99.90;;;;;;5019827;28;20192;-57
2022/11/18 11:32:58;;;;;;;52.60;18.57;;;12.50;99.90;;;;;;5029508;28;20173;-57
2022/11/18 11:35:26;;;;;;;68.63;26.67;;;12.70;99.90;;;;;;5029948;28;20209;-57
2022/11/18 11:38:14;;;;;;;352.43;121.40;;;14.30;99.90;;;;;;5031294;28;20175;-57
2022/11/18 11:40:54;;;;;;;18.90;4.77;;;15.70;99.90;;;;;;5031320;28;20839;-57
2022/11/18 11:43:30;;;;;;;17.30;8.93;;;15.60;99.90;;;;;;5032454;28;20177;-55
2022/11/18 11:46:14;;;;;;;15.15;6.32;;;14.80;99.90;;;;;;5031746;28;20189;-57
2022/11/18 11:48:55;;;;;;;13.25;2.28;;;13.30;99.90;;;;;;5032788;28;20280;-61
2022/11/18 11:51:24;;;;;;;12.57;1.93;;;13.10;99.90;;;;;;5031903;28;20668;-55
2022/11/18 11:54:11;;;;;;;8.87;1.80;;;12.90;99.90;;;;;;5023303;28;20182;-56
2022/11/18 11:56:49;;;;;;;9.73;2.07;;;13.00;99.90;;;;;;5031685;28;20202;-56
2022/11/18 11:59:24;;;;;;;10.73;1.63;;;12.80;99.90;;;;;;5032039;28;20166;-56
2022/11/18 12:02:13;;;;;;;10.03;1.17;;;12.70;99.90;;;;;;5031778;28;20268;-57
2022/11/18 12:04:45;;;;;;;12.97;3.70;;;13.10;99.90;;;;;;5031405;28;20178;-57
2022/11/18 12:07:26;;;;;;;47.67;14.67;;;12.80;99.90;;;;;;5032265;28;20308;-57
2022/11/18 12:10:07;;;;;;;53.37;19.00;;;13.20;99.90;;;;;;5031980;28;20174;-57
2022/11/18 12:13:01;;;;;;;21.70;10.33;;;13.10;99.90;;;;;;5031976;28;20176;-58
2022/11/18 12:15:37;;;;;;;11.57;2.20;;;13.90;99.90;;;;;;5031651;28;20197;-57
2022/11/18 12:18:23;;;;;;;9.83;0.97;;;13.30;99.90;;;;;;5031835;28;20192;-58
2022/11/18 12:20:55;;;;;;;8.10;1.40;;;12.80;99.90;;;;;;5011595;28;20178;-57
2022/11/18 12:23:26;;;;;;;10.33;1.37;;;12.80;99.90;;;;;;5011254;28;20629;-58
2022/11/18 12:25:55;;;;;;;10.47;1.90;;;12.50;99.90;;;;;;5011846;28;20175;-57
2022/11/18 12:28:26;;;;;;;7.00;1.27;;;12.40;99.90;;;;;;5008444;28;20664;-58
2022/11/18 12:31:17;;;;;;;34.37;12.47;;;12.70;99.90;;;;;;5008278;28;20697;-57
2022/11/18 12:34:03;;;;;;;10.73;1.77;;;12.70;99.90;;;;;;5012019;28;20244;-57
2022/11/18 12:36:38;;;;;;;10.60;1.73;;;12.60;99.90;;;;;;5017870;28;20215;-57
2022/11/18 12:39:22;;;;;;;10.67;1.40;;;12.40;99.90;;;;;;5011889;28;20174;-58
2022/11/18 12:44:40;;;;;;;8.90;1.37;;;12.90;99.90;;;;;;5027741;28;20269;-58
2022/11/18 12:47:07;;;;;;;13.13;1.57;;;13.10;99.90;;;;;;5024616;28;20192;-58
2022/11/18 12:49:32;;;;;;;7.00;1.27;;;13.10;99.90;;;;;;5031389;28;20228;-58
2022/11/18 12:52:21;;;;;;;6.73;1.17;;;13.10;99.90;;;;;;5030920;28;20181;-58
2022/11/18 12:54:48;;;;;;;8.47;1.30;;;13.00;99.90;;;;;;5027118;28;20181;-58
2022/11/18 12:57:21;;;;;;;4.93;1.20;;;13.00;99.90;;;;;;5031193;28;20217;-58
2022/11/18 12:59:48;;;;;;;11.97;1.53;;;13.00;99.90;;;;;;5019396;28;20177;-58
2022/11/18 13:02:21;;;;;;;13.43;1.63;;;13.30;99.90;;;;;;5031334;28;20260;-58
2022/11/18 13:05:17;;;;;;;9.30;2.30;;;13.20;99.90;;;;;;5030973;28;20185;-58
2022/11/18 13:10:37;;;;;;;11.13;3.10;;;12.80;99.90;;;;;;5031410;28;20197;-58
2022/11/18 13:13:03;;;;;;;12.70;2.90;;;13.00;99.90;;;;;;5031203;28;20166;-58
2022/11/18 13:18:17;;;;;;;12.97;1.97;;;13.00;99.90;;;;;;5015276;28;20248;-58
2022/11/18 13:20:52;;;;;;;12.17;2.30;;;12.90;99.90;;;;;;5022992;28;20178;-58
2022/11/18 13:26:28;;;;;;;11.90;1.50;;;13.00;99.90;;;;;;5029754;28;20185;-58
2022/11/18 13:29:14;;;;;;;14.73;2.27;;;12.80;99.90;;;;;;5011172;28;20174;-58
2022/11/18 13:31:55;;;;;;;13.43;2.13;;;13.40;99.90;;;;;;5029148;28;20438;-57
2022/11/18 13:34:26;;;;;;;10.23;2.20;;;13.30;99.90;;;;;;5024657;28;20235;-59
2022/11/18 13:36:55;;;;;;;13.67;2.17;;;14.50;99.90;;;;;;5010256;28;20213;-58
2022/11/18 13:39:29;;;;;;;10.77;1.90;;;15.10;99.90;;;;;;5012153;28;20637;-56
2022/11/18 13:42:04;;;;;;;11.55;2.10;;;14.90;99.90;;;;;;5010634;28;20212;-58